createdAt,value
2018-09-27T00:02:07.573Z,0.84
2018-09-27T00:04:35.640Z,0.80
2018-09-27T00:07:03.673Z,0.82
2018-09-27T00:09:31.671Z,0.82
2018-09-27T00:11:59.737Z,0.82
2018-09-27T00:14:27.746Z,0.85
2018-09-27T00:16:55.817Z,0.74
2018-09-27T00:19:23.823Z,0.73
2018-09-27T00:21:51.822Z,0.73
2018-09-27T00:24:19.853Z,0.68
2018-09-27T00:26:47.842Z,0.73
2018-09-27T00:29:15.888Z,0.71
2018-09-27T00:31:44.058Z,0.66
2018-09-27T00:34:12.106Z,0.60
2018-09-27T00:36:40.213Z,0.65
2018-09-27T00:39:10.804Z,0.65
2018-09-27T00:41:38.843Z,0.76
2018-09-27T00:44:06.890Z,0.70
2018-09-27T00:46:34.944Z,0.64
2018-09-27T00:49:02.981Z,0.63
2018-09-27T00:51:30.975Z,0.68
2018-09-27T00:53:59.205Z,0.77
2018-09-27T00:56:27.302Z,0.67
2018-09-27T00:58:55.258Z,0.62
2018-09-27T01:01:23.246Z,0.65
2018-09-27T01:03:51.374Z,0.55
2018-09-27T01:06:19.467Z,0.60
2018-09-27T01:08:47.667Z,0.48
2018-09-27T01:11:15.943Z,0.50
2018-09-27T01:13:43.978Z,0.53
2018-09-27T01:16:12.089Z,0.48
2018-09-27T01:18:40.174Z,0.46
2018-09-27T01:21:08.353Z,0.44
2018-09-27T01:23:36.484Z,0.36
2018-09-27T01:26:04.466Z,0.33
2018-09-27T01:28:32.475Z,0.33
2018-09-27T01:31:00.486Z,0.35
2018-09-27T01:33:28.514Z,0.43
2018-09-27T01:35:56.566Z,0.39
2018-09-27T01:38:24.573Z,0.35
2018-09-27T01:40:52.649Z,0.35
2018-09-27T01:43:20.700Z,0.38
2018-09-27T01:45:48.866Z,0.30
2018-09-27T01:48:17.361Z,0.29
2018-09-27T01:50:45.549Z,0.29
2018-09-27T01:53:13.659Z,0.30
2018-09-27T01:55:41.960Z,0.24
2018-09-27T01:58:10.050Z,0.23
2018-09-27T02:00:38.053Z,0.14
2018-09-27T02:03:06.067Z,0.16
2018-09-27T02:05:34.979Z,0.12
2018-09-27T02:08:03.135Z,0.12
2018-09-27T02:10:31.267Z,0.19
2018-09-27T02:12:59.338Z,0.12
2018-09-27T02:15:27.366Z,0.01
2018-09-27T02:17:55.528Z,0.11
2018-09-27T02:20:24.335Z,0.17
2018-09-27T02:22:52.377Z,0.14
2018-09-27T02:25:20.469Z,0.02
2018-09-27T02:27:48.560Z,-0.10
2018-09-27T02:30:17.607Z,-0.06
2018-09-27T02:32:45.740Z,-0.17
2018-09-27T02:35:13.768Z,-0.16
2018-09-27T02:37:41.820Z,0.02
2018-09-27T02:40:10.446Z,0.09
2018-09-27T02:42:38.525Z,0.24
2018-09-27T02:45:07.008Z,0.11
2018-09-27T02:47:35.239Z,-0.03
2018-09-27T02:50:03.325Z,0.03
2018-09-27T02:52:31.452Z,0.08
2018-09-27T02:54:59.500Z,0.07
2018-09-27T02:57:27.476Z,0.00
2018-09-27T02:59:55.511Z,-0.06
2018-09-27T03:02:23.545Z,-0.08
2018-09-27T03:04:51.832Z,-0.18
2018-09-27T03:07:19.885Z,-0.09
2018-09-27T03:09:47.961Z,-0.22
2018-09-27T03:12:16.067Z,-0.17
2018-09-27T03:14:44.293Z,-0.14
2018-09-27T03:17:12.361Z,-0.13
2018-09-27T03:19:40.473Z,-0.28
2018-09-27T03:22:08.662Z,-0.34
2018-09-27T03:24:36.798Z,-0.40
2018-09-27T03:27:04.965Z,-0.43
2018-09-27T03:29:33.007Z,-0.33
2018-09-27T03:32:01.259Z,-0.38
2018-09-27T03:34:29.319Z,-0.46
2018-09-27T03:36:57.388Z,-0.47
2018-09-27T03:39:26.023Z,-0.56
2018-09-27T03:41:54.137Z,-0.56
2018-09-27T03:44:22.244Z,-0.62
2018-09-27T03:46:50.717Z,-0.60
2018-09-27T03:49:19.193Z,-0.61
2018-09-27T03:51:47.463Z,-0.67
2018-09-27T03:54:15.570Z,-0.60
2018-09-27T03:56:43.684Z,-0.63
2018-09-27T03:59:11.748Z,-0.72
2018-09-27T04:01:39.836Z,-0.56
2018-09-27T04:04:08.255Z,-0.47
2018-09-27T04:06:36.341Z,-0.48
2018-09-27T04:09:06.418Z,-0.45
2018-09-27T04:11:34.477Z,-0.45
2018-09-27T04:14:02.619Z,-0.53
2018-09-27T04:16:30.703Z,-0.52
2018-09-27T04:18:58.849Z,-0.56
2018-09-27T04:21:26.908Z,-0.54
2018-09-27T04:23:55.045Z,-0.40
2018-09-27T04:26:23.117Z,-0.50
2018-09-27T04:28:51.126Z,-0.42
2018-09-27T04:31:19.364Z,-0.43
2018-09-27T04:33:47.595Z,-0.42
2018-09-27T04:36:15.844Z,-0.39
2018-09-27T04:38:43.867Z,-0.30
2018-09-27T04:41:11.965Z,-0.35
2018-09-27T04:43:40.169Z,-0.31
2018-09-27T04:46:08.307Z,-0.25
2018-09-27T04:48:36.349Z,-0.25
2018-09-27T04:51:04.503Z,-0.26
2018-09-27T04:53:32.560Z,-0.07
2018-09-27T04:56:00.795Z,0.04
2018-09-27T04:58:28.821Z,0.05
2018-09-27T05:00:56.864Z,0.04
2018-09-27T05:03:25.035Z,0.17
2018-09-27T05:05:53.132Z,0.42
2018-09-27T05:08:21.254Z,0.69
2018-09-27T05:10:49.352Z,1.31
2018-09-27T05:13:17.342Z,2.32
2018-09-27T05:15:45.433Z,3.36
2018-09-27T05:18:13.588Z,4.33
2018-09-27T05:20:42.065Z,4.85
2018-09-27T05:23:10.359Z,5.32
2018-09-27T05:25:38.505Z,5.72
2018-09-27T05:28:06.786Z,5.82
2018-09-27T05:30:35.000Z,5.99
2018-09-27T05:33:03.371Z,6.05
2018-09-27T05:35:31.460Z,6.88
2018-09-27T05:37:59.670Z,7.16
2018-09-27T05:40:27.874Z,6.57
2018-09-27T05:42:56.129Z,6.86
2018-09-27T05:45:24.384Z,6.54
2018-09-27T05:47:52.578Z,7.28
2018-09-27T05:50:21.044Z,7.29
2018-09-27T05:52:52.447Z,7.59
2018-09-27T05:55:23.922Z,7.73
2018-09-27T05:57:55.034Z,7.84
2018-09-27T06:00:24.458Z,7.86
2018-09-27T06:02:57.111Z,7.73
2018-09-27T06:05:29.272Z,7.52
2018-09-27T06:08:01.280Z,7.64
2018-09-27T06:10:34.684Z,7.75
2018-09-27T06:13:07.123Z,7.91
2018-09-27T06:15:41.803Z,8.19
2018-09-27T06:18:12.676Z,8.04
2018-09-27T06:20:40.949Z,7.93
2018-09-27T06:23:09.168Z,8.01
2018-09-27T06:25:37.397Z,8.26
2018-09-27T06:28:06.000Z,8.39
2018-09-27T06:30:34.248Z,8.36
2018-09-27T06:33:02.445Z,8.51
2018-09-27T06:35:30.611Z,8.71
2018-09-27T06:37:58.727Z,9.15
2018-09-27T06:40:27.162Z,9.34
2018-09-27T06:42:55.637Z,9.68
2018-09-27T06:45:23.827Z,9.93
2018-09-27T06:47:52.048Z,9.53
2018-09-27T06:50:20.239Z,9.32
2018-09-27T06:52:48.388Z,9.77
2018-09-27T06:55:17.096Z,9.76
2018-09-27T06:57:44.972Z,9.73
2018-09-27T07:00:13.130Z,9.85
2018-09-27T07:02:41.375Z,10.19
2018-09-27T07:05:09.465Z,10.26
2018-09-27T07:07:37.449Z,10.49
2018-09-27T07:10:05.573Z,10.68
2018-09-27T07:12:33.866Z,10.67
2018-09-27T07:15:01.929Z,10.96
2018-09-27T07:17:30.009Z,10.63
2018-09-27T07:19:58.259Z,10.51
2018-09-27T07:22:26.479Z,11.01
2018-09-27T07:24:54.773Z,11.13
2018-09-27T07:27:23.089Z,11.32
2018-09-27T07:29:51.362Z,11.65
2018-09-27T07:32:19.713Z,11.91
2018-09-27T07:34:47.868Z,12.10
2018-09-27T07:37:16.341Z,12.00
2018-09-27T07:39:44.619Z,11.55
2018-09-27T07:42:12.725Z,12.09
2018-09-27T07:44:40.854Z,12.07
2018-09-27T07:47:09.018Z,12.43
2018-09-27T07:49:37.232Z,12.80
2018-09-27T07:52:05.416Z,12.91
2018-09-27T07:54:33.687Z,12.74
2018-09-27T07:57:01.741Z,12.70
2018-09-27T07:59:29.884Z,12.93
2018-09-27T08:01:58.008Z,13.25
2018-09-27T08:04:26.163Z,13.17
2018-09-27T08:06:54.278Z,13.65
2018-09-27T08:09:22.364Z,13.48
2018-09-27T08:11:50.531Z,13.62
2018-09-27T08:14:18.628Z,13.76
2018-09-27T08:16:47.289Z,13.99
2018-09-27T08:19:15.271Z,14.17
2018-09-27T08:21:44.175Z,13.98
2018-09-27T08:24:12.415Z,14.54
2018-09-27T08:26:41.077Z,14.27
2018-09-27T08:29:09.413Z,14.12
2018-09-27T08:31:37.686Z,14.09
2018-09-27T08:34:05.862Z,14.28
2018-09-27T08:36:34.184Z,14.33
2018-09-27T08:39:02.600Z,13.98
2018-09-27T08:41:30.801Z,13.62
2018-09-27T08:43:59.109Z,13.55
2018-09-27T08:46:27.170Z,12.94
2018-09-27T08:48:55.281Z,12.66
2018-09-27T08:51:23.409Z,12.97
2018-09-27T08:53:51.615Z,13.60
2018-09-27T08:56:19.889Z,14.23
2018-09-27T08:58:47.922Z,14.70
2018-09-27T09:01:16.365Z,14.59
2018-09-27T09:03:44.602Z,14.24
2018-09-27T09:06:12.565Z,14.12
2018-09-27T09:08:40.741Z,14.31
2018-09-27T09:11:08.926Z,14.48
2018-09-27T09:13:37.121Z,14.12
2018-09-27T09:16:05.344Z,14.37
2018-09-27T09:18:34.161Z,14.26
2018-09-27T09:21:02.827Z,14.80
2018-09-27T09:23:31.979Z,14.77
2018-09-27T09:26:00.245Z,14.68
2018-09-27T09:28:28.524Z,14.07
2018-09-27T09:30:56.786Z,14.17
2018-09-27T09:33:25.411Z,14.52
2018-09-27T09:35:53.659Z,14.95
2018-09-27T09:38:21.808Z,15.42
2018-09-27T09:40:49.979Z,15.66
2018-09-27T09:43:18.045Z,15.55
2018-09-27T09:45:46.244Z,15.59
2018-09-27T09:48:14.450Z,15.52
2018-09-27T09:50:42.651Z,15.58
2018-09-27T09:53:10.811Z,15.62
2018-09-27T09:55:38.928Z,15.74
2018-09-27T09:58:07.154Z,15.48
2018-09-27T10:00:36.793Z,15.94
2018-09-27T10:03:05.608Z,16.33
2018-09-27T10:05:33.818Z,16.35
2018-09-27T10:08:01.893Z,16.04
2018-09-27T10:10:29.909Z,16.17
2018-09-27T10:12:58.436Z,16.17
2018-09-27T10:15:26.516Z,16.16
2018-09-27T10:17:54.613Z,15.95
2018-09-27T10:20:22.796Z,15.81
2018-09-27T10:22:50.980Z,15.50
2018-09-27T10:25:19.097Z,15.30
2018-09-27T10:27:47.380Z,15.84
2018-09-27T10:30:15.512Z,15.69
2018-09-27T10:32:43.562Z,15.80
2018-09-27T10:35:11.675Z,15.83
2018-09-27T10:37:39.677Z,15.54
2018-09-27T10:40:07.970Z,15.36
2018-09-27T10:42:36.233Z,16.04
2018-09-27T10:45:04.431Z,16.09
2018-09-27T10:47:32.478Z,16.07
2018-09-27T10:50:00.521Z,16.12
2018-09-27T10:52:28.880Z,16.10
2018-09-27T10:54:56.915Z,16.35
2018-09-27T10:57:24.969Z,15.96
2018-09-27T10:59:53.040Z,16.24
2018-09-27T11:02:21.104Z,16.48
2018-09-27T11:04:49.312Z,15.89
2018-09-27T11:07:17.400Z,15.92
2018-09-27T11:09:45.600Z,15.76
2018-09-27T11:12:13.737Z,15.92
2018-09-27T11:14:42.011Z,16.13
2018-09-27T11:17:10.257Z,16.07
2018-09-27T11:19:38.641Z,16.01
2018-09-27T11:22:07.000Z,16.09
2018-09-27T11:24:35.251Z,15.78
2018-09-27T11:27:03.499Z,16.07
2018-09-27T11:29:37.589Z,15.95
2018-09-27T11:32:11.156Z,15.77
2018-09-27T11:34:39.337Z,15.89
2018-09-27T11:37:07.504Z,16.19
2018-09-27T11:39:35.799Z,16.44
2018-09-27T11:42:04.454Z,16.29
2018-09-27T11:44:32.780Z,16.42
2018-09-27T11:47:01.365Z,16.58
2018-09-27T11:49:29.701Z,16.77
2018-09-27T11:51:57.590Z,16.80
2018-09-27T11:54:25.754Z,16.76
2018-09-27T11:56:54.009Z,16.74
2018-09-27T11:59:22.285Z,16.43
2018-09-27T12:01:50.427Z,16.14
2018-09-27T12:04:18.725Z,16.35
2018-09-27T12:06:46.983Z,16.48
2018-09-27T12:09:14.950Z,16.22
2018-09-27T12:11:43.185Z,16.18
2018-09-27T12:14:12.184Z,16.21
2018-09-27T12:16:40.480Z,16.32
2018-09-27T12:19:08.821Z,16.56
2018-09-27T12:21:37.301Z,16.65
2018-09-27T12:24:05.458Z,16.37
2018-09-27T12:26:33.527Z,16.43
2018-09-27T12:29:01.623Z,16.17
2018-09-27T12:31:29.769Z,16.23
2018-09-27T12:33:57.921Z,16.35
2018-09-27T12:36:26.304Z,16.37
2018-09-27T12:38:54.646Z,16.39
2018-09-27T12:41:22.962Z,16.33
2018-09-27T12:43:51.169Z,16.00
2018-09-27T12:46:19.254Z,16.01
2018-09-27T12:48:47.844Z,16.20
2018-09-27T12:51:16.056Z,16.29
2018-09-27T12:53:43.972Z,16.22
2018-09-27T12:56:11.983Z,16.46
2018-09-27T12:58:40.154Z,16.43
2018-09-27T13:01:08.360Z,16.22
2018-09-27T13:03:36.327Z,16.25
2018-09-27T13:06:04.365Z,16.45
2018-09-27T13:08:32.899Z,16.30
2018-09-27T13:11:01.027Z,16.19
2018-09-27T13:13:29.585Z,16.33
2018-09-27T13:15:57.577Z,16.14
2018-09-27T13:18:25.677Z,16.11
2018-09-27T13:20:53.709Z,16.16
2018-09-27T13:23:21.954Z,16.12
2018-09-27T13:25:50.073Z,16.18
2018-09-27T13:28:18.108Z,16.11
2018-09-27T13:30:46.158Z,16.05
2018-09-27T13:33:15.892Z,15.96
2018-09-27T13:35:43.963Z,15.80
2018-09-27T13:38:12.281Z,16.00
2018-09-27T13:40:40.637Z,15.88
2018-09-27T13:43:08.825Z,15.77
2018-09-27T13:45:36.851Z,15.80
2018-09-27T13:48:04.950Z,15.77
2018-09-27T13:50:33.251Z,15.98
2018-09-27T13:53:01.411Z,15.93
2018-09-27T13:55:29.496Z,15.86
2018-09-27T13:57:57.563Z,15.88
2018-09-27T14:00:25.675Z,15.84
2018-09-27T14:02:54.081Z,15.76
2018-09-27T14:05:22.193Z,15.65
2018-09-27T14:07:50.442Z,15.59
2018-09-27T14:10:18.507Z,15.47
2018-09-27T14:12:46.676Z,15.71
2018-09-27T14:15:14.687Z,15.70
2018-09-27T14:17:42.700Z,15.67
2018-09-27T14:20:10.879Z,15.47
2018-09-27T14:22:39.012Z,15.39
2018-09-27T14:25:07.127Z,15.39
2018-09-27T14:27:35.234Z,15.48
2018-09-27T14:30:03.330Z,15.30
2018-09-27T14:32:31.411Z,15.21
2018-09-27T14:34:59.652Z,15.43
2018-09-27T14:37:27.824Z,15.40
2018-09-27T14:39:55.876Z,15.25
2018-09-27T14:42:24.189Z,15.09
2018-09-27T14:44:52.439Z,14.94
2018-09-27T14:47:20.491Z,15.07
2018-09-27T14:49:48.569Z,14.90
2018-09-27T14:52:16.701Z,14.58
2018-09-27T14:54:44.967Z,14.63
2018-09-27T14:57:13.476Z,14.51
2018-09-27T14:59:41.549Z,14.30
2018-09-27T15:02:09.648Z,14.33
2018-09-27T15:04:37.855Z,14.33
2018-09-27T15:07:05.883Z,14.09
2018-09-27T15:09:34.168Z,13.91
2018-09-27T15:12:02.171Z,13.61
2018-09-27T15:14:30.241Z,13.59
2018-09-27T15:16:58.444Z,13.59
2018-09-27T15:19:26.788Z,13.47
2018-09-27T15:21:55.272Z,13.61
2018-09-27T15:24:24.209Z,13.28
2018-09-27T15:26:52.834Z,13.12
2018-09-27T15:29:21.281Z,12.79
2018-09-27T15:31:49.323Z,12.57
2018-09-27T15:34:17.576Z,12.33
2018-09-27T15:36:45.781Z,12.13
2018-09-27T15:39:13.866Z,11.88
2018-09-27T15:41:41.959Z,11.57
2018-09-27T15:44:10.119Z,11.37
2018-09-27T15:46:38.394Z,11.22
2018-09-27T15:49:06.898Z,11.01
2018-09-27T15:51:36.043Z,10.75
2018-09-27T15:54:04.615Z,10.63
2018-09-27T15:56:33.500Z,10.42
2018-09-27T15:59:01.947Z,10.30
2018-09-27T16:01:30.423Z,10.14
2018-09-27T16:03:58.908Z,9.88
2018-09-27T16:06:27.296Z,9.70
2018-09-27T16:08:55.932Z,9.51
2018-09-27T16:11:25.113Z,9.35
2018-09-27T16:13:53.567Z,9.24
2018-09-27T16:16:21.928Z,9.03
2018-09-27T16:18:50.523Z,8.86
2018-09-27T16:21:20.767Z,8.77
2018-09-27T16:23:50.187Z,8.70
2018-09-27T16:26:20.876Z,8.69
2018-09-27T16:28:49.385Z,8.74
2018-09-27T16:31:18.101Z,8.81
2018-09-27T16:33:46.629Z,8.91
2018-09-27T16:36:15.116Z,8.92
2018-09-27T16:38:43.565Z,8.69
2018-09-27T16:41:12.550Z,8.47
2018-09-27T16:43:41.106Z,8.30
2018-09-27T16:46:09.620Z,8.29
2018-09-27T16:48:38.809Z,8.14
2018-09-27T16:51:07.229Z,8.01
2018-09-27T16:53:36.159Z,7.93
2018-09-27T16:56:04.786Z,7.86
2018-09-27T16:58:33.333Z,7.74
2018-09-27T17:01:02.108Z,7.60
2018-09-27T17:03:30.990Z,7.47
2018-09-27T17:06:00.525Z,7.43
2018-09-27T17:08:29.742Z,7.42
2018-09-27T17:11:01.808Z,7.40
2018-09-27T17:13:30.894Z,7.41
2018-09-27T17:16:03.264Z,7.39
2018-09-27T17:18:32.134Z,7.29
2018-09-27T17:21:00.806Z,7.26
2018-09-27T17:23:29.376Z,7.23
2018-09-27T17:25:57.778Z,7.11
2018-09-27T17:28:26.449Z,7.02
2018-09-27T17:30:56.650Z,6.91
2018-09-27T17:33:26.341Z,6.81
2018-09-27T17:35:54.645Z,6.70
2018-09-27T17:38:23.021Z,6.59
2018-09-27T17:40:51.477Z,6.52
2018-09-27T17:43:20.716Z,6.40
2018-09-27T17:45:49.195Z,6.25
2018-09-27T17:48:17.512Z,6.21
2018-09-27T17:50:45.927Z,6.20
2018-09-27T17:53:14.365Z,6.11
2018-09-27T17:55:42.920Z,6.03
2018-09-27T17:58:11.304Z,5.97
2018-09-27T18:00:39.720Z,5.83
2018-09-27T18:03:08.137Z,5.80
2018-09-27T18:05:36.593Z,5.70
2018-09-27T18:08:05.324Z,5.64
2018-09-27T18:10:34.266Z,5.56
2018-09-27T18:13:02.775Z,5.46
2018-09-27T18:15:31.295Z,5.42
2018-09-27T18:17:59.814Z,5.30
2018-09-27T18:20:30.867Z,5.28
2018-09-27T18:22:59.358Z,5.28
2018-09-27T18:25:28.702Z,5.21
2018-09-27T18:27:57.043Z,5.22
2018-09-27T18:30:25.460Z,5.17
2018-09-27T18:32:53.818Z,5.18
2018-09-27T18:35:22.248Z,5.19
2018-09-27T18:37:50.640Z,5.14
2018-09-27T18:40:19.086Z,5.05
2018-09-27T18:42:47.930Z,5.07
2018-09-27T18:45:16.893Z,5.14
2018-09-27T18:47:45.093Z,5.09
2018-09-27T18:50:13.508Z,5.13
2018-09-27T18:52:41.746Z,5.14
2018-09-27T18:55:09.949Z,5.24
2018-09-27T18:57:38.127Z,5.20
2018-09-27T19:00:06.688Z,5.15
2018-09-27T19:02:35.338Z,5.11
2018-09-27T19:05:03.632Z,5.09
2018-09-27T19:07:31.858Z,5.12
2018-09-27T19:09:59.888Z,5.29
2018-09-27T19:12:28.141Z,5.37
2018-09-27T19:14:56.425Z,5.19
2018-09-27T19:17:26.187Z,5.09
2018-09-27T19:19:55.404Z,5.01
2018-09-27T19:22:23.518Z,5.03
2018-09-27T19:24:51.851Z,5.44
2018-09-27T19:27:20.786Z,5.52
2018-09-27T19:29:48.959Z,5.17
2018-09-27T19:32:17.087Z,4.93
2018-09-27T19:34:45.279Z,4.84
2018-09-27T19:37:13.514Z,5.01
2018-09-27T19:39:41.579Z,4.83
2018-09-27T19:42:09.579Z,4.80
2018-09-27T19:44:37.611Z,4.81
2018-09-27T19:47:07.167Z,4.81
2018-09-27T19:49:35.300Z,4.81
2018-09-27T19:52:03.347Z,4.80
2018-09-27T19:54:31.416Z,4.87
2018-09-27T19:56:59.455Z,4.88
2018-09-27T19:59:27.596Z,4.85
2018-09-27T20:01:55.620Z,4.86
2018-09-27T20:04:23.659Z,4.83
2018-09-27T20:06:51.894Z,4.79
2018-09-27T20:09:20.024Z,4.82
2018-09-27T20:11:48.044Z,4.77
2018-09-27T20:14:16.272Z,4.96
2018-09-27T20:16:44.450Z,4.95
2018-09-27T20:19:12.636Z,4.84
2018-09-27T20:21:40.825Z,4.98
2018-09-27T20:24:08.948Z,4.87
2018-09-27T20:26:37.086Z,4.69
2018-09-27T20:29:05.733Z,4.76
2018-09-27T20:31:33.902Z,4.58
2018-09-27T20:34:02.624Z,4.49
2018-09-27T20:36:30.923Z,4.45
2018-09-27T20:38:59.447Z,4.39
2018-09-27T20:41:27.731Z,4.29
2018-09-27T20:43:55.865Z,4.21
2018-09-27T20:46:24.092Z,4.14
2018-09-27T20:48:52.334Z,4.07
2018-09-27T20:51:20.654Z,3.96
2018-09-27T20:53:48.808Z,4.02
2018-09-27T20:56:16.957Z,3.95
2018-09-27T20:58:45.233Z,3.87
2018-09-27T21:01:13.520Z,3.79
2018-09-27T21:03:41.875Z,3.69
2018-09-27T21:06:10.207Z,3.67
2018-09-27T21:08:38.286Z,3.55
2018-09-27T21:11:06.656Z,3.52
2018-09-27T21:13:34.867Z,3.47
2018-09-27T21:16:03.153Z,3.52
2018-09-27T21:18:31.436Z,3.52
2018-09-27T21:21:00.027Z,3.51
2018-09-27T21:23:28.643Z,3.48
2018-09-27T21:25:56.818Z,3.49
2018-09-27T21:28:26.204Z,3.61
2018-09-27T21:30:55.553Z,3.77
2018-09-27T21:33:24.849Z,3.95
2018-09-27T21:35:53.164Z,4.09
2018-09-27T21:38:21.345Z,4.04
2018-09-27T21:40:49.659Z,3.97
2018-09-27T21:43:17.897Z,3.85
2018-09-27T21:45:46.111Z,3.74
2018-09-27T21:48:14.339Z,3.79
2018-09-27T21:50:42.607Z,3.79
2018-09-27T21:53:10.727Z,3.71
2018-09-27T21:55:38.831Z,3.79
2018-09-27T21:58:07.054Z,3.79
2018-09-27T22:00:36.679Z,3.73
2018-09-27T22:03:04.918Z,3.71
2018-09-27T22:05:33.024Z,3.58
2018-09-27T22:08:01.118Z,3.59
2018-09-27T22:10:29.385Z,3.70
2018-09-27T22:12:57.611Z,3.86
2018-09-27T22:15:25.757Z,4.07
2018-09-27T22:17:53.908Z,3.91
2018-09-27T22:20:22.766Z,3.74
2018-09-27T22:22:51.200Z,3.59
2018-09-27T22:25:19.499Z,3.48
2018-09-27T22:27:47.747Z,3.46
2018-09-27T22:30:16.314Z,3.40
2018-09-27T22:32:44.558Z,3.42
2018-09-27T22:35:12.779Z,3.33
2018-09-27T22:37:42.715Z,3.27
2018-09-27T22:40:11.040Z,3.26
2018-09-27T22:42:39.154Z,3.22
2018-09-27T22:45:07.281Z,3.23
2018-09-27T22:47:35.374Z,3.17
2018-09-27T22:50:03.721Z,3.14
2018-09-27T22:52:31.830Z,3.10
2018-09-27T22:55:00.142Z,3.03
2018-09-27T22:57:28.553Z,2.90
2018-09-27T22:59:56.757Z,2.88
2018-09-27T23:02:24.881Z,2.79
2018-09-27T23:04:52.990Z,2.73
2018-09-27T23:07:21.058Z,2.74
2018-09-27T23:09:49.163Z,2.69
2018-09-27T23:12:17.480Z,2.69
2018-09-27T23:14:45.634Z,2.82
2018-09-27T23:17:13.774Z,2.70
2018-09-27T23:19:41.790Z,2.60
2018-09-27T23:22:09.884Z,2.49
2018-09-27T23:24:38.182Z,2.32
2018-09-27T23:27:06.267Z,2.25
2018-09-27T23:29:34.404Z,2.24
2018-09-27T23:32:02.443Z,2.26
2018-09-27T23:34:30.662Z,2.39
2018-09-27T23:36:58.777Z,2.56
2018-09-27T23:39:26.900Z,2.70
2018-09-27T23:41:55.032Z,2.79
2018-09-27T23:44:23.189Z,2.84
2018-09-27T23:46:51.382Z,2.89
2018-09-27T23:49:19.565Z,2.81
2018-09-27T23:51:47.673Z,2.78
2018-09-27T23:54:15.799Z,2.81
2018-09-27T23:56:43.820Z,2.77
2018-09-27T23:59:11.957Z,2.77
